Time;durP1;ratioP1;P1;durP2;ratioP2;P2;SDS_P1;SDS_P2;PMS_P1;PMS_P2;Temp;Humidity;BMP_temperature;BMP_pressure;BME280_temperature;BME280_humidity;BME280_pressure;Samples;Min_cycle;Max_cycle;Signal;HPM_P1;HPM_P2
2022/01/27 00:00:05;;;;;;;20.87;12.80;;;6.40;78.20;6.20;97473.00;;;;5021299;28;20278;-84
2022/01/27 00:02:55;;;;;;;;;;;;;;;;;;;;;
2022/01/27 00:05:15;;;;;;;21.20;12.33;;;6.40;78.20;6.20;97474.00;;;;5058057;23;20237;-88
2022/01/27 00:07:43;;;;;;;21.33;12.53;;;6.30;78.10;6.30;97478.00;;;;5040525;28;20254;-88
2022/01/27 00:10:21;;;;;;;19.37;11.67;;;6.30;78.00;6.30;97475.00;;;;5032855;28;20288;-89
2022/01/27 00:12:48;;;;;;;23.50;13.33;;;6.40;77.60;6.30;97462.00;;;;5032206;28;20201;-89
2022/01/27 00:15:16;;;;;;;21.30;13.10;;;6.40;78.00;6.30;97472.00;;;;5031540;28;20201;-88
2022/01/27 00:17:48;;;;;;;22.00;13.17;;;6.40;77.60;6.20;97466.00;;;;5033005;28;20256;-89
2022/01/27 00:20:16;;;;;;;20.60;13.27;;;6.30;77.50;6.20;97477.00;;;;5032661;28;20592;-89
2022/01/27 00:22:43;;;;;;;18.77;11.90;;;6.40;77.40;6.20;97499.00;;;;5021754;28;20232;-87
2022/01/27 00:25:12;;;;;;;20.57;12.63;;;6.30;77.10;6.20;97494.00;;;;5028366;28;20201;-89
2022/01/27 00:27:39;;;;;;;17.97;11.70;;;6.30;77.40;6.20;97495.00;;;;5034436;28;20228;-89
2022/01/27 00:30:10;;;;;;;18.43;12.20;;;6.30;77.10;6.20;97492.00;;;;5033651;28;20205;-90
2022/01/27 00:32:37;;;;;;;19.13;12.23;;;6.30;77.10;6.20;97496.00;;;;5034268;28;20197;-88
2022/01/27 00:35:07;;;;;;;20.63;12.83;;;6.30;77.30;6.10;97496.00;;;;5032340;28;20214;-90
2022/01/27 00:37:34;;;;;;;20.30;12.30;;;6.30;76.70;6.10;97492.00;;;;5034030;28;20224;-90
2022/01/27 00:40:01;;;;;;;18.33;12.57;;;6.20;77.20;6.10;97484.00;;;;5033998;28;20671;-89
2022/01/27 00:42:29;;;;;;;19.83;12.23;;;6.20;76.80;6.10;97479.00;;;;5033039;28;20201;-90
2022/01/27 00:44:58;;;;;;;21.30;12.30;;;6.20;77.10;6.10;97470.00;;;;5034422;28;20225;-90
2022/01/27 00:47:25;;;;;;;19.80;12.30;;;6.20;76.90;6.10;97484.00;;;;5034870;28;20221;-88
2022/01/27 00:49:52;;;;;;;18.73;11.40;;;6.20;77.00;6.10;97475.00;;;;5035964;28;20218;-90
2022/01/27 00:52:27;;;;;;;20.80;13.27;;;6.20;76.80;6.10;97477.00;;;;5032495;28;20461;-90
2022/01/27 00:54:55;;;;;;;17.33;11.80;;;6.20;77.00;6.10;97477.00;;;;5032092;28;20292;-89
2022/01/27 00:57:35;;;;;;;18.20;12.10;;;6.20;77.00;6.10;97474.00;;;;5035709;28;20212;-89
2022/01/27 01:00:05;;;;;;;19.73;11.87;;;6.20;77.20;6.10;97474.00;;;;5042852;28;20193;-88
2022/01/27 01:02:42;;;;;;;16.97;10.97;;;6.20;77.00;6.10;97472.00;;;;5041891;28;20197;-88
2022/01/27 01:05:26;;;;;;;20.03;12.27;;;6.20;76.80;6.10;97474.00;;;;5042440;28;20213;-90
2022/01/27 01:07:57;;;;;;;17.00;11.50;;;6.20;77.20;6.20;97461.00;;;;5027126;28;20202;-89
2022/01/27 01:11:09;;;;;;;17.93;11.33;;;6.20;77.00;6.20;97471.00;;;;5036395;28;20269;-87
2022/01/27 01:16:34;;;;;;;17.07;11.30;;;6.20;77.00;6.10;97477.00;;;;4978530;28;20227;-89
2022/01/27 01:19:09;;;;;;;16.47;10.53;;;6.20;76.50;6.10;97470.00;;;;5025979;28;20261;-88
2022/01/27 01:21:53;;;;;;;17.60;11.37;;;6.20;76.50;6.00;97472.00;;;;5035923;28;20216;-89
2022/01/27 01:30:06;;;;;;;19.03;11.83;;;6.20;76.70;6.00;97482.00;;;;5032472;28;20204;-89
2022/01/27 01:32:42;;;;;;;17.10;11.43;;;6.10;76.70;6.00;97475.00;;;;5032441;28;20548;-90
2022/01/27 01:35:10;;;;;;;16.63;10.83;;;6.10;76.50;5.90;97471.00;;;;5031739;28;20204;-89
2022/01/27 01:37:40;;;;;;;20.47;12.27;;;6.10;76.60;6.00;97466.00;;;;5031237;28;20306;-90
2022/01/27 01:40:14;;;;;;;20.40;12.93;;;6.10;76.90;5.90;97460.00;;;;5031279;28;20252;-89
2022/01/27 01:42:42;;;;;;;19.03;11.50;;;6.10;76.80;5.90;97460.00;;;;5038813;28;20207;-88
2022/01/27 01:45:13;;;;;;;17.10;10.67;;;6.00;76.50;5.90;97454.00;;;;5047912;28;20256;-90
2022/01/27 01:47:41;;;;;;;17.00;11.40;;;6.00;76.60;6.00;97451.00;;;;5053267;28;20198;-89
2022/01/27 01:50:12;;;;;;;17.17;11.03;;;6.00;76.60;5.90;97458.00;;;;5050331;28;20257;-89
2022/01/27 01:52:41;;;;;;;14.67;10.60;;;6.00;76.60;6.00;97464.00;;;;5051372;28;20216;-88
2022/01/27 01:55:11;;;;;;;18.37;10.63;;;6.20;76.80;6.00;97468.00;;;;5044777;28;20272;-90
2022/01/27 01:57:38;;;;;;;17.70;11.27;;;6.10;76.70;6.00;97464.00;;;;5031012;28;20232;-90
2022/01/27 02:00:09;;;;;;;15.00;10.37;;;6.10;76.60;6.00;97464.00;;;;5019688;28;20201;-87
2022/01/27 02:02:36;;;;;;;16.67;10.90;;;6.10;76.70;6.00;97471.00;;;;5038805;28;20581;-90
2022/01/27 02:05:05;;;;;;;15.70;11.13;;;6.10;77.20;6.10;97464.00;;;;5036953;28;20223;-90
2022/01/27 02:07:47;;;;;;;17.17;10.77;;;6.10;76.30;6.00;97450.00;;;;5041325;28;20224;-89
2022/01/27 02:10:31;;;;;;;16.00;10.90;;;6.10;76.40;6.00;97449.00;;;;5032978;28;20197;-90
2022/01/27 02:18:30;;;;;;;16.53;10.93;;;6.10;76.00;5.90;97442.00;;;;5034478;28;20260;-92
2022/01/27 02:20:58;;;;;;;15.60;10.77;;;6.10;76.10;5.90;97435.00;;;;5032607;28;20220;-90
2022/01/27 02:23:25;;;;;;;16.47;11.17;;;6.10;76.10;5.90;97431.00;;;;5034692;28;20224;-91
2022/01/27 02:25:52;;;;;;;16.43;11.43;;;6.10;76.10;5.90;97441.00;;;;5040906;28;20197;-90
2022/01/27 02:28:21;;;;;;;16.53;11.27;;;6.10;76.00;5.90;97440.00;;;;5036028;28;20592;-90
2022/01/27 02:30:48;;;;;;;17.93;11.67;;;6.10;76.30;5.90;97446.00;;;;5034982;28;20193;-90
2022/01/27 02:33:15;;;;;;;19.83;12.60;;;6.10;76.40;5.90;97444.00;;;;5034484;28;20227;-90
2022/01/27 02:35:42;;;;;;;17.30;11.43;;;6.00;76.30;5.90;97446.00;;;;5031170;28;20284;-91
2022/01/27 02:38:10;;;;;;;19.60;12.03;;;6.00;76.20;5.90;97444.00;;;;5034488;28;20698;-88
2022/01/27 02:40:44;;;;;;;19.47;12.37;;;6.00;76.10;5.90;97442.00;;;;5034418;28;20212;-90
2022/01/27 02:43:11;;;;;;;19.97;12.53;;;7.30;76.90;5.90;97438.00;;;;5034598;28;20283;-90
2022/01/27 02:45:46;;;;;;;19.63;12.80;;;6.50;76.80;5.90;97443.00;;;;5032840;28;20194;-91
2022/01/27 02:48:13;;;;;;;18.13;11.83;;;6.10;76.10;5.90;97435.00;;;;5034134;28;20199;-90
2022/01/27 02:50:41;;;;;;;21.33;12.50;;;6.00;77.00;5.90;97429.00;;;;5032751;28;20209;-89
2022/01/27 02:53:10;;;;;;;19.03;12.30;;;6.10;76.20;5.90;97436.00;;;;5040013;28;20244;-89
2022/01/27 02:55:37;;;;;;;20.83;11.67;;;6.90;76.60;6.00;97408.00;;;;5045154;28;20261;-88
2022/01/27 02:58:04;;;;;;;20.40;12.60;;;6.10;76.10;6.00;97419.00;;;;5045516;28;20260;-89
2022/01/27 03:00:33;;;;;;;20.63;12.63;;;6.00;76.10;6.00;97404.00;;;;5046743;28;20201;-88
2022/01/27 03:03:00;;;;;;;20.93;13.07;;;6.10;76.30;6.00;97409.00;;;;5044824;28;20282;-90
2022/01/27 03:05:27;;;;;;;22.07;13.50;;;6.10;76.10;6.00;97413.00;;;;5037506;28;20296;-88
2022/01/27 03:07:54;;;;;;;21.97;13.30;;;6.10;76.60;6.00;97407.00;;;;5050203;28;20265;-88
2022/01/27 03:10:29;;;;;;;22.57;13.77;;;6.00;76.00;6.00;97398.00;;;;5048432;28;20262;-86
2022/01/27 03:13:00;;;;;;;22.03;13.23;;;6.10;76.20;5.90;97388.00;;;;5047290;28;20264;-89
2022/01/27 03:15:27;;;;;;;22.23;13.00;;;6.10;76.20;5.90;97389.00;;;;5043283;28;20296;-90
2022/01/27 03:17:54;;;;;;;25.20;13.80;;;6.00;76.10;5.90;97387.00;;;;5043782;28;20308;-91
2022/01/27 03:20:22;;;;;;;19.67;12.77;;;6.00;76.30;5.90;97393.00;;;;5037889;28;20801;-84
2022/01/27 03:22:49;;;;;;;25.47;14.67;;;6.00;76.10;5.90;97377.00;;;;5036862;28;20194;-90
2022/01/27 03:25:16;;;;;;;24.97;14.03;;;6.00;76.50;5.90;97380.00;;;;5040949;28;20198;-88
2022/01/27 03:27:47;;;;;;;22.73;13.67;;;6.00;76.20;5.90;97374.00;;;;5039782;28;20205;-88
2022/01/27 03:30:16;;;;;;;23.60;14.57;;;6.00;75.90;5.90;97373.00;;;;5037140;28;20190;-89
2022/01/27 03:32:44;;;;;;;27.67;14.83;;;6.00;75.80;5.80;97371.00;;;;5043248;28;20209;-86
2022/01/27 03:35:11;;;;;;;25.23;14.27;;;6.00;75.90;5.80;97392.00;;;;5051291;28;20194;-86
2022/01/27 03:37:39;;;;;;;26.03;14.77;;;5.90;75.70;5.80;97395.00;;;;5053720;28;20228;-88
2022/01/27 03:40:08;;;;;;;23.67;13.33;;;5.90;75.80;5.80;97392.00;;;;5051485;28;20502;-87
2022/01/27 03:42:42;;;;;;;21.90;13.43;;;5.90;76.00;5.80;97396.00;;;;5054200;28;20180;-87
2022/01/27 03:45:11;;;;;;;24.30;13.57;;;5.90;76.10;5.80;97408.00;;;;5050514;28;20278;-87
2022/01/27 03:47:38;;;;;;;24.83;13.87;;;5.90;76.10;5.80;97413.00;;;;5049841;28;20549;-89
2022/01/27 03:50:06;;;;;;;22.70;13.70;;;5.90;76.10;5.80;97409.00;;;;5043281;28;20257;-88
2022/01/27 03:52:34;;;;;;;23.50;14.63;;;5.90;76.30;5.80;97408.00;;;;5036218;28;20265;-89
2022/01/27 03:55:01;;;;;;;24.63;15.13;;;5.90;76.00;5.80;97394.00;;;;5039256;28;20221;-86
2022/01/27 03:57:28;;;;;;;25.50;15.07;;;5.90;76.40;5.80;97381.00;;;;5033317;28;20231;-86
2022/01/27 03:59:55;;;;;;;33.97;19.70;;;5.90;76.40;5.80;97374.00;;;;5037876;28;20202;-89
2022/01/27 04:02:23;;;;;;;29.87;16.83;;;5.90;76.40;5.80;97376.00;;;;5036472;28;20672;-90
2022/01/27 04:04:50;;;;;;;28.93;17.97;;;5.90;76.10;5.80;97375.00;;;;5043035;28;20244;-89
2022/01/27 04:07:17;;;;;;;28.07;15.97;;;5.90;76.40;5.80;97377.00;;;;5040921;28;20218;-88
2022/01/27 04:09:44;;;;;;;29.30;17.43;;;6.00;76.40;5.80;97362.00;;;;5040062;28;20300;-89
2022/01/27 04:12:11;;;;;;;27.77;16.13;;;5.90;76.20;5.80;97354.00;;;;5042236;28;20204;-84
2022/01/27 04:14:38;;;;;;;26.53;15.50;;;5.90;76.30;5.80;97361.00;;;;5038487;28;20225;-90
2022/01/27 04:17:05;;;;;;;26.93;15.60;;;5.90;76.50;5.80;97354.00;;;;5038875;28;20622;-89
2022/01/27 04:19:34;;;;;;;26.43;15.40;;;5.90;76.80;5.80;97354.00;;;;5038985;28;20197;-89
2022/01/27 04:22:02;;;;;;;28.33;15.70;;;5.90;76.40;5.80;97365.00;;;;5045280;28;20212;-87
2022/01/27 04:24:30;;;;;;;25.73;15.63;;;5.90;76.40;5.80;97355.00;;;;5046790;28;20221;-87
2022/01/27 04:27:05;;;;;;;27.00;16.43;;;5.90;76.50;5.80;97350.00;;;;5046564;28;20202;-89
2022/01/27 04:29:36;;;;;;;28.37;16.03;;;5.90;76.70;5.90;97355.00;;;;5042362;28;20196;-85
2022/01/27 04:32:08;;;;;;;26.43;15.23;;;5.90;76.70;5.90;97344.00;;;;5048740;28;20208;-91
2022/01/27 04:34:39;;;;;;;29.73;16.03;;;5.90;76.60;5.90;97352.00;;;;5037636;28;20299;-90
2022/01/27 04:37:08;;;;;;;28.90;16.50;;;5.90;76.70;5.90;97349.00;;;;5035319;28;20198;-90
2022/01/27 04:39:41;;;;;;;32.07;17.90;;;5.90;76.90;5.90;97350.00;;;;5032045;28;20660;-90
2022/01/27 04:42:14;;;;;;;29.13;16.70;;;5.90;76.60;5.90;97346.00;;;;5034240;28;20209;-89
2022/01/27 04:44:48;;;;;;;28.00;15.93;;;5.90;76.80;5.90;97339.00;;;;5035083;28;20228;-91
2022/01/27 04:47:21;;;;;;;27.73;15.67;;;6.00;76.80;6.00;97346.00;;;;5034257;28;20192;-88
2022/01/27 04:49:50;;;;;;;30.93;17.53;;;6.00;76.90;6.00;97340.00;;;;5038825;28;20236;-91
2022/01/27 04:52:17;;;;;;;31.30;17.40;;;6.30;77.20;6.00;97349.00;;;;5042417;28;20197;-90
2022/01/27 04:54:54;;;;;;;32.30;18.07;;;6.00;77.10;6.00;97333.00;;;;5041782;28;20296;-86
2022/01/27 04:57:22;;;;;;;31.10;17.23;;;6.00;76.90;5.90;97340.00;;;;5039983;28;20216;-88
2022/01/27 04:59:49;;;;;;;30.97;17.57;;;6.00;76.80;5.90;97335.00;;;;5031521;28;20194;-90
2022/01/27 05:02:24;;;;;;;31.57;18.10;;;6.00;77.40;5.90;97332.00;;;;5040539;28;20216;-89
2022/01/27 05:04:52;;;;;;;31.77;17.50;;;6.00;76.50;5.90;97328.00;;;;5036766;28;20586;-90
2022/01/27 05:07:19;;;;;;;30.83;17.17;;;6.00;76.60;5.90;97316.00;;;;5041681;28;20675;-90
2022/01/27 05:09:53;;;;;;;30.60;17.70;;;6.00;76.50;5.90;97317.00;;;;5042858;28;20296;-88
2022/01/27 05:12:31;;;;;;;29.97;16.97;;;6.00;76.50;5.90;97312.00;;;;5038761;28;20190;-89
2022/01/27 05:14:59;;;;;;;31.27;17.50;;;6.00;76.80;5.90;97308.00;;;;5046412;28;20213;-88
2022/01/27 05:17:26;;;;;;;29.53;16.30;;;6.00;76.70;5.90;97312.00;;;;5047743;28;20292;-88
2022/01/27 05:19:55;;;;;;;30.27;16.73;;;6.00;76.70;5.90;97311.00;;;;5046409;28;20253;-89
2022/01/27 05:22:22;;;;;;;30.50;17.20;;;6.00;76.50;5.90;97319.00;;;;5040613;28;20194;-88
2022/01/27 05:24:49;;;;;;;30.20;17.40;;;5.90;76.60;5.90;97312.00;;;;5048588;28;20229;-87
2022/01/27 05:27:16;;;;;;;29.80;16.80;;;5.90;76.50;5.80;97314.00;;;;5050411;28;20204;-87
2022/01/27 05:29:43;;;;;;;28.70;16.90;;;5.90;76.40;5.80;97303.00;;;;5050274;28;20284;-87
2022/01/27 05:32:10;;;;;;;29.00;17.30;;;5.90;76.50;5.80;97310.00;;;;5054544;28;20184;-87
2022/01/27 05:34:37;;;;;;;30.37;16.93;;;5.90;76.60;5.80;97313.00;;;;5053451;28;20285;-86
2022/01/27 05:37:06;;;;;;;28.63;16.80;;;6.40;76.80;5.80;97312.00;;;;5057590;28;20237;-86
2022/01/27 05:39:33;;;;;;;31.00;17.23;;;5.90;76.50;5.80;97308.00;;;;5058794;28;20216;-86
2022/01/27 05:42:00;;;;;;;34.50;19.40;;;5.90;76.50;5.80;97303.00;;;;5050537;28;20234;-86
2022/01/27 05:44:27;;;;;;;30.00;17.37;;;5.90;76.80;5.80;97307.00;;;;5057097;28;20225;-86
2022/01/27 05:46:54;;;;;;;32.33;18.87;;;5.90;76.60;5.80;97304.00;;;;5055274;28;20208;-87
2022/01/27 05:49:21;;;;;;;31.23;17.07;;;5.90;76.40;5.70;97304.00;;;;5043386;28;20199;-90
2022/01/27 05:51:48;;;;;;;30.97;17.83;;;5.80;76.10;5.70;97296.00;;;;5036005;28;20204;-90
2022/01/27 05:54:16;;;;;;;30.07;17.00;;;5.80;76.10;5.70;97298.00;;;;5039092;28;20221;-90
2022/01/27 05:56:43;;;;;;;30.83;17.57;;;5.80;76.40;5.60;97295.00;;;;5038603;28;20204;-90
2022/01/27 05:59:10;;;;;;;35.50;18.63;;;5.70;76.40;5.60;97289.00;;;;5052773;28;20224;-86
2022/01/27 06:01:37;;;;;;;34.00;19.10;;;5.70;76.50;5.50;97296.00;;;;5048817;28;20208;-90
2022/01/27 06:04:05;;;;;;;31.93;18.40;;;5.70;76.60;5.50;97284.00;;;;5079977;22;20592;-85
2022/01/27 06:06:32;;;;;;;34.10;19.00;;;5.70;76.20;5.40;97288.00;;;;5036585;28;20206;-86
2022/01/27 06:08:59;;;;;;;33.97;19.00;;;5.60;76.20;5.40;97295.00;;;;5006315;28;20198;-85
2022/01/27 06:11:27;;;;;;;31.20;17.67;;;5.60;76.40;5.40;97284.00;;;;5013666;28;20225;-86
2022/01/27 06:13:54;;;;;;;29.77;16.90;;;5.60;76.40;5.30;97277.00;;;;5013029;28;20190;-86
2022/01/27 06:16:21;;;;;;;29.60;17.33;;;5.50;76.50;5.30;97287.00;;;;5030322;22;20182;-85
2022/01/27 06:18:51;;;;;;;31.17;18.17;;;5.50;76.30;5.30;97291.00;;;;5055467;28;20280;-85
2022/01/27 06:21:18;;;;;;;32.77;18.43;;;5.40;76.20;5.20;97276.00;;;;5052546;28;20208;-89
2022/01/27 06:23:45;;;;;;;32.90;18.23;;;5.40;76.30;5.20;97276.00;;;;5054949;28;20661;-88
2022/01/27 06:26:12;;;;;;;34.13;19.23;;;5.40;76.20;5.20;97281.00;;;;5054266;28;20200;-87
2022/01/27 06:28:41;;;;;;;35.70;18.73;;;5.30;76.20;5.10;97271.00;;;;5051407;28;20231;-88
2022/01/27 06:31:11;;;;;;;32.47;18.63;;;5.30;76.30;5.10;97272.00;;;;5054661;28;20223;-88
2022/01/27 06:33:38;;;;;;;31.77;18.40;;;5.30;76.50;5.00;97266.00;;;;5053953;28;20219;-88
2022/01/27 06:36:18;;;;;;;31.00;18.10;;;5.20;76.40;5.00;97264.00;;;;5054988;28;20197;-87
2022/01/27 06:38:48;;;;;;;30.00;17.47;;;5.20;76.40;4.90;97264.00;;;;5054929;28;20205;-88
2022/01/27 06:41:26;;;;;;;31.80;18.37;;;5.10;76.20;4.90;97260.00;;;;5054760;28;20235;-90
2022/01/27 06:43:57;;;;;;;32.93;17.90;;;5.10;76.20;4.80;97264.00;;;;5055417;28;20196;-92
2022/01/27 06:46:35;;;;;;;32.43;18.00;;;5.10;76.40;4.90;97269.00;;;;5055264;28;20200;-91
2022/01/27 06:49:14;;;;;;;32.30;18.47;;;5.00;77.20;4.80;97263.00;;;;5048756;28;20196;-89
2022/01/27 06:51:49;;;;;;;33.10;18.73;;;5.00;76.70;4.90;97271.00;;;;5053926;28;20220;-89
2022/01/27 06:54:17;;;;;;;32.63;18.90;;;4.90;76.60;4.90;97273.00;;;;5053987;28;20200;-88
2022/01/27 06:56:48;;;;;;;34.50;19.33;;;4.90;76.80;4.90;97274.00;;;;5055120;28;20200;-86
2022/01/27 06:59:24;;;;;;;32.00;18.70;;;4.90;76.90;4.90;97261.00;;;;5034779;28;20295;-87
2022/01/27 07:01:53;;;;;;;35.30;20.27;;;4.90;77.00;4.90;97268.00;;;;5046752;28;20601;-86
2022/01/27 07:04:20;;;;;;;37.17;20.27;;;4.90;77.10;4.90;97271.00;;;;5053306;28;20204;-87
2022/01/27 07:06:49;;;;;;;36.70;20.03;;;4.90;77.40;4.90;97270.00;;;;5054281;28;20200;-87
2022/01/27 07:09:16;;;;;;;37.53;20.07;;;4.90;77.40;4.90;97274.00;;;;5054536;28;20189;-88
2022/01/27 07:11:43;;;;;;;37.00;20.10;;;4.90;77.30;4.90;97276.00;;;;5048559;28;20223;-87
2022/01/27 07:14:13;;;;;;;34.57;19.07;;;4.90;77.60;4.90;97282.00;;;;5047776;28;20254;-87
2022/01/27 07:16:45;;;;;;;33.10;19.67;;;4.90;77.50;4.90;97270.00;;;;5052294;28;20224;-87
2022/01/27 07:19:13;;;;;;;32.37;19.07;;;4.90;77.50;4.90;97272.00;;;;5051377;28;20224;-87
2022/01/27 07:21:44;;;;;;;33.07;18.87;;;4.90;77.50;4.90;97278.00;;;;5047416;28;20245;-86
2022/01/27 07:24:11;;;;;;;32.40;19.37;;;4.90;77.60;4.90;97282.00;;;;5053145;28;20283;-86
2022/01/27 07:26:41;;;;;;;37.17;19.73;;;4.90;77.50;4.90;97278.00;;;;5046509;28;20224;-87
2022/01/27 07:29:11;;;;;;;34.20;19.43;;;4.90;77.60;4.90;97276.00;;;;5045764;28;20292;-87
2022/01/27 07:31:38;;;;;;;36.40;19.87;;;4.90;77.60;4.90;97273.00;;;;5038093;28;20247;-88
2022/01/27 07:34:15;;;;;;;34.80;19.27;;;4.90;77.60;4.90;97276.00;;;;5053013;28;20266;-88
2022/01/27 07:36:45;;;;;;;34.73;20.17;;;4.90;78.10;5.00;97274.00;;;;5053088;28;20586;-88
2022/01/27 07:39:14;;;;;;;33.60;19.30;;;5.00;77.60;5.00;97272.00;;;;5047888;28;20270;-88
2022/01/27 07:41:44;;;;;;;38.80;20.60;;;5.00;77.70;5.00;97278.00;;;;5053185;28;20227;-88
2022/01/27 07:44:12;;;;;;;35.73;19.57;;;5.00;77.80;5.00;97279.00;;;;5044671;28;20209;-88
2022/01/27 07:46:44;;;;;;;35.13;19.27;;;5.00;77.80;5.00;97280.00;;;;5026227;28;20216;-88
2022/01/27 07:49:16;;;;;;;34.07;19.83;;;5.00;77.80;5.00;97280.00;;;;5034789;28;20605;-89
2022/01/27 07:51:44;;;;;;;34.63;19.70;;;5.00;78.00;5.10;97277.00;;;;5032663;28;20658;-89
2022/01/27 07:54:11;;;;;;;35.87;21.53;;;5.10;78.20;5.20;97273.00;;;;5034999;28;20329;-89
2022/01/27 07:56:40;;;;;;;35.97;20.73;;;5.10;78.20;5.20;97263.00;;;;5040950;28;20209;-90
2022/01/27 07:59:10;;;;;;;33.67;19.43;;;5.10;78.20;5.20;97272.00;;;;5041065;28;20272;-89
2022/01/27 08:01:38;;;;;;;35.03;19.50;;;5.20;78.20;5.30;97280.00;;;;5036319;28;20235;-89
2022/01/27 08:04:05;;;;;;;38.67;20.57;;;5.20;78.40;5.30;97281.00;;;;5040510;28;20204;-89
2022/01/27 08:06:34;;;;;;;33.87;19.93;;;5.20;78.70;5.40;97280.00;;;;5041152;28;20288;-88
2022/01/27 08:09:01;;;;;;;32.50;18.83;;;5.30;78.40;5.50;97278.00;;;;5036933;28;20197;-88
2022/01/27 08:11:28;;;;;;;41.30;22.00;;;5.30;78.50;5.50;97276.00;;;;5041575;28;20229;-89
2022/01/27 08:13:55;;;;;;;35.13;20.23;;;5.40;78.70;5.60;97273.00;;;;5043258;28;20203;-89
2022/01/27 08:16:23;;;;;;;33.97;19.30;;;5.40;78.40;5.60;97288.00;;;;5052058;28;20282;-88
2022/01/27 08:18:50;;;;;;;34.30;19.37;;;5.50;78.20;5.70;97279.00;;;;5052530;28;20220;-89
2022/01/27 08:21:18;;;;;;;31.13;18.50;;;5.40;78.10;5.70;97278.00;;;;5050627;28;20213;-88
2022/01/27 08:23:47;;;;;;;35.57;20.13;;;5.60;78.50;5.80;97279.00;;;;5048450;28;20295;-89
2022/01/27 08:26:26;;;;;;;34.23;19.77;;;5.60;78.30;5.80;97278.00;;;;5059995;28;20633;-89
2022/01/27 08:29:05;;;;;;;29.03;17.70;;;5.70;78.30;5.90;97272.00;;;;5055191;28;20231;-89
2022/01/27 08:31:42;;;;;;;33.23;19.83;;;5.70;78.30;6.00;97258.00;;;;5053543;28;20223;-88
2022/01/27 08:34:14;;;;;;;36.40;20.30;;;5.80;78.70;6.10;97263.00;;;;5053065;28;20219;-89
2022/01/27 08:36:44;;;;;;;34.93;20.50;;;5.80;78.40;6.10;97266.00;;;;5053442;28;20719;-89
2022/01/27 08:39:12;;;;;;;32.93;19.03;;;5.90;78.50;6.20;97263.00;;;;5052340;28;20595;-89
2022/01/27 08:41:41;;;;;;;28.93;17.13;;;6.00;78.40;6.20;97248.00;;;;5052956;28;20737;-88
2022/01/27 08:44:14;;;;;;;30.77;18.70;;;6.10;78.10;6.30;97244.00;;;;5051523;28;20204;-88
2022/01/27 08:46:45;;;;;;;31.10;18.40;;;6.10;78.50;6.40;97253.00;;;;5052892;28;20711;-89
2022/01/27 08:49:19;;;;;;;28.13;17.63;;;6.20;77.90;6.40;97246.00;;;;5051037;28;20254;-89
2022/01/27 08:51:50;;;;;;;27.27;16.73;;;6.20;77.90;6.50;97253.00;;;;5046429;28;20693;-89
2022/01/27 08:54:25;;;;;;;27.83;17.03;;;6.30;77.90;6.60;97235.00;;;;5057440;28;20572;-90
2022/01/27 08:57:00;;;;;;;25.87;15.47;;;6.40;78.10;6.70;97234.00;;;;5056464;28;20257;-90
2022/01/27 08:59:38;;;;;;;26.67;16.40;;;6.50;77.40;6.80;97241.00;;;;5062565;28;20226;-89
2022/01/27 09:02:08;;;;;;;27.67;16.70;;;6.60;77.90;6.80;97228.00;;;;5042868;28;20307;-89
2022/01/27 09:04:44;;;;;;;26.87;16.53;;;6.70;78.00;6.90;97233.00;;;;5051674;28;20288;-87
2022/01/27 09:07:47;;;;;;;23.80;15.63;;;6.70;77.60;7.00;97238.00;;;;5051815;28;20208;-88
2022/01/27 09:10:46;;;;;;;26.53;16.27;;;6.80;77.30;7.00;97220.00;;;;5059714;28;20610;-90
2022/01/27 09:13:19;;;;;;;19.97;13.70;;;6.90;76.70;7.10;97226.00;;;;5042706;28;20192;-90
2022/01/27 09:15:49;;;;;;;22.57;14.97;;;6.90;77.40;7.10;97230.00;;;;5053578;28;20235;-89
2022/01/27 09:18:19;;;;;;;22.57;14.73;;;7.00;76.50;7.20;97228.00;;;;5054298;28;20197;-89
2022/01/27 09:20:46;;;;;;;21.80;14.50;;;7.00;76.60;7.20;97225.00;;;;5054378;28;20304;-89
2022/01/27 09:23:14;;;;;;;20.17;13.37;;;7.10;77.40;7.20;97235.00;;;;5054194;28;20192;-88
2022/01/27 09:25:47;;;;;;;22.27;13.73;;;7.10;76.20;7.30;97241.00;;;;5053396;28;20773;-89
2022/01/27 09:28:15;;;;;;;20.20;13.33;;;7.20;75.90;7.30;97248.00;;;;5053195;28;20549;-89
2022/01/27 09:30:45;;;;;;;19.40;13.43;;;7.20;74.80;7.30;97241.00;;;;5054067;28;20631;-89
2022/01/27 09:33:13;;;;;;;19.27;12.70;;;7.20;75.40;7.30;97241.00;;;;5054885;28;20593;-89
2022/01/27 09:35:41;;;;;;;17.60;12.77;;;7.30;75.30;7.30;97258.00;;;;5054837;28;20192;-90
2022/01/27 09:38:08;;;;;;;17.77;12.47;;;7.30;75.10;7.40;97243.00;;;;5054314;28;20216;-90
2022/01/27 09:40:36;;;;;;;17.73;11.93;;;7.30;74.60;7.40;97241.00;;;;5053767;28;20294;-90
2022/01/27 09:43:05;;;;;;;17.37;11.87;;;7.40;74.30;7.40;97237.00;;;;5051538;28;20193;-89
2022/01/27 09:45:39;;;;;;;18.60;12.50;;;7.40;74.90;7.40;97238.00;;;;5051449;28;20203;-90
2022/01/27 09:48:13;;;;;;;16.43;12.00;;;7.50;74.60;7.50;97240.00;;;;5052317;28;20205;-89
2022/01/27 09:51:10;;;;;;;18.30;11.97;;;7.60;74.90;7.60;97253.00;;;;5049319;28;20231;-89
2022/01/27 09:53:41;;;;;;;17.20;12.10;;;7.70;75.20;7.70;97243.00;;;;5051412;28;20208;-87
2022/01/27 09:56:10;;;;;;;16.07;11.60;;;7.80;75.40;7.80;97238.00;;;;5052549;28;20641;-90
2022/01/27 09:58:41;;;;;;;14.87;11.33;;;7.90;75.20;7.90;97234.00;;;;5054269;28;20193;-87
2022/01/27 10:01:11;;;;;;;17.17;11.23;;;8.10;74.90;7.90;97236.00;;;;5056192;28;20221;-87
2022/01/27 10:03:54;;;;;;;15.03;10.90;;;8.10;73.80;8.00;97239.00;;;;5049554;28;20638;-91
2022/01/27 10:06:22;;;;;;;17.00;11.07;;;8.30;73.10;8.10;97239.00;;;;5052568;28;21357;-91
2022/01/27 10:09:19;;;;;;;15.20;10.80;;;8.30;74.50;8.30;97253.00;;;;5054062;28;20200;-91
2022/01/27 10:11:50;;;;;;;14.27;10.77;;;8.40;73.40;8.40;97241.00;;;;5039203;28;20243;-91
2022/01/27 10:14:35;;;;;;;18.37;11.47;;;8.50;73.70;8.40;97243.00;;;;5052632;28;20205;-91
2022/01/27 10:17:07;;;;;;;14.00;10.60;;;8.70;73.10;8.50;97245.00;;;;5051533;28;20223;-91
2022/01/27 10:19:36;;;;;;;15.53;11.20;;;8.80;74.30;8.60;97237.00;;;;5051560;28;20216;-92
2022/01/27 10:22:06;;;;;;;13.97;10.13;;;9.00;72.80;8.70;97245.00;;;;5052502;28;20223;-92
2022/01/27 10:24:35;;;;;;;11.17;9.17;;;9.10;73.40;8.70;97254.00;;;;5053108;28;20667;-91
2022/01/27 10:27:28;;;;;;;13.47;9.70;;;9.30;73.50;8.80;97247.00;;;;5052192;28;20614;-91
2022/01/27 10:30:35;;;;;;;11.83;8.57;;;9.40;72.10;8.90;97248.00;;;;5051525;28;20243;-91
2022/01/27 10:32:54;;;;;;;15.07;10.57;;;9.60;72.20;9.00;97237.00;;;;5050384;28;20217;-90
2022/01/27 10:35:25;;;;;;;13.17;9.23;;;9.70;71.50;9.00;97234.00;;;;5052184;28;20279;-92
2022/01/27 10:38:01;;;;;;;14.80;10.47;;;9.80;71.10;9.10;97230.00;;;;5053209;28;20196;-89
2022/01/27 10:40:32;;;;;;;12.53;9.87;;;9.90;71.40;9.10;97225.00;;;;5051481;28;20247;-91
2022/01/27 10:43:07;;;;;;;14.27;9.60;;;10.00;71.40;9.30;97233.00;;;;5050324;28;20189;-90
2022/01/27 10:45:36;;;;;;;11.40;9.00;;;10.10;72.00;9.40;97231.00;;;;5052055;28;20210;-90
2022/01/27 10:48:17;;;;;;;10.50;8.63;;;10.10;71.70;9.50;97235.00;;;;5052411;28;20827;-90
2022/01/27 10:50:55;;;;;;;12.30;9.17;;;10.30;71.90;9.70;97230.00;;;;5051703;28;20263;-88
2022/01/27 10:53:23;;;;;;;11.87;8.83;;;10.40;70.80;9.70;97224.00;;;;5052017;28;20207;-89
2022/01/27 10:56:16;;;;;;;13.33;8.97;;;10.40;70.70;9.80;97224.00;;;;5044044;28;20200;-90
2022/01/27 10:58:44;;;;;;;12.70;9.33;;;10.50;68.00;9.90;97222.00;;;;5050368;28;20273;-89
2022/01/27 11:01:27;;;;;;;11.47;8.17;;;10.50;70.10;9.90;97217.00;;;;5039425;28;20757;-89
2022/01/27 11:03:57;;;;;;;11.27;8.00;;;10.40;68.00;10.00;97214.00;;;;5052053;28;20231;-89
2022/01/27 11:06:26;;;;;;;11.77;8.50;;;10.40;69.30;10.00;97213.00;;;;5048144;28;20305;-89
2022/01/27 11:08:56;;;;;;;11.03;9.03;;;10.40;67.50;9.90;97223.00;;;;5046138;28;20200;-89
2022/01/27 11:11:25;;;;;;;12.17;8.40;;;10.30;67.60;9.90;97214.00;;;;5052372;28;20246;-89
2022/01/27 11:13:55;;;;;;;12.23;9.57;;;10.20;68.10;9.80;97213.00;;;;5051096;28;20204;-89
2022/01/27 11:16:34;;;;;;;10.07;8.67;;;10.20;68.10;9.70;97206.00;;;;5053033;28;20250;-89
2022/01/27 11:19:15;;;;;;;12.93;9.43;;;10.10;66.90;9.70;97209.00;;;;5034082;28;20189;-90
2022/01/27 11:21:46;;;;;;;12.60;8.93;;;10.00;68.00;9.60;97208.00;;;;5033708;28;20248;-89
2022/01/27 11:24:24;;;;;;;12.10;9.20;;;9.90;66.40;9.50;97207.00;;;;5033743;28;20186;-89